Time;durP1;ratioP1;P1;durP2;ratioP2;P2;SDS_P1;SDS_P2;PMS_P1;PMS_P2;Temp;Humidity;BMP_temperature;BMP_pressure;BME280_temperature;BME280_humidity;BME280_pressure;Samples;Min_cycle;Max_cycle;Signal;HPM_P1;HPM_P2
2022/10/26 00:01:19;;;;;;;2.50;1.08;;;10.70;96.50;;;;;;4769771;29;21975;-88
2022/10/26 00:03:48;;;;;;;4.25;1.42;;;10.70;96.50;;;;;;4784130;29;20467;-87
2022/10/26 00:06:23;;;;;;;3.85;1.63;;;10.70;96.50;;;;;;4769943;30;20466;-87
2022/10/26 00:08:51;;;;;;;3.70;1.05;;;10.70;96.50;;;;;;4769568;29;20056;-87
2022/10/26 00:11:19;;;;;;;2.25;1.08;;;10.70;96.50;;;;;;4754790;30;20062;-87
2022/10/26 00:13:47;;;;;;;2.60;1.33;;;10.70;96.50;;;;;;4769430;30;20043;-87
2022/10/26 00:16:24;;;;;;;2.78;1.25;;;10.70;96.50;;;;;;4769349;29;20109;-87
2022/10/26 00:18:51;;;;;;;3.05;0.90;;;10.70;96.50;;;;;;4784534;29;20056;-87
2022/10/26 00:21:19;;;;;;;5.00;1.52;;;10.80;96.50;;;;;;4784426;29;20056;-88
2022/10/26 00:23:46;;;;;;;2.20;1.17;;;10.80;96.50;;;;;;4769733;29;20120;-87
2022/10/26 00:26:13;;;;;;;3.10;1.42;;;10.80;96.50;;;;;;4769471;29;20094;-87
2022/10/26 00:28:40;;;;;;;5.70;1.25;;;10.80;96.50;;;;;;4788130;30;20058;-87
2022/10/26 00:31:12;;;;;;;2.70;1.10;;;10.80;96.50;;;;;;4745550;30;21911;-87
2022/10/26 00:33:39;;;;;;;1.80;0.93;;;10.80;96.40;;;;;;4778686;29;20566;-87
2022/10/26 00:36:08;;;;;;;4.00;1.15;;;10.80;96.40;;;;;;4779012;29;20051;-87
2022/10/26 00:38:36;;;;;;;3.75;1.10;;;10.80;96.40;;;;;;4774829;29;20464;-88
2022/10/26 00:41:03;;;;;;;3.30;1.25;;;10.80;96.40;;;;;;4788062;29;20059;-87
2022/10/26 00:43:30;;;;;;;2.88;1.10;;;10.80;96.40;;;;;;4776477;29;20105;-87
2022/10/26 00:45:58;;;;;;;2.45;1.38;;;10.80;96.40;;;;;;4787661;29;20052;-87
2022/10/26 00:48:35;;;;;;;2.45;0.95;;;10.80;96.40;;;;;;4772608;30;20055;-86
2022/10/26 00:51:15;;;;;;;3.55;1.02;;;10.90;96.70;;;;;;4781286;29;20109;-87
2022/10/26 00:53:45;;;;;;;4.05;0.90;;;10.80;96.40;;;;;;4771029;29;20051;-86
2022/10/26 00:56:12;;;;;;;2.70;0.88;;;10.90;96.50;;;;;;4772445;29;20109;-87
2022/10/26 00:58:40;;;;;;;2.60;1.13;;;10.90;96.50;;;;;;4766100;30;20111;-86
2022/10/26 01:01:07;;;;;;;2.15;1.17;;;10.90;96.50;;;;;;4772913;30;20056;-88
2022/10/26 01:03:35;;;;;;;4.82;1.38;;;10.90;96.40;;;;;;4772693;29;20113;-88
2022/10/26 01:06:04;;;;;;;2.60;0.88;;;10.90;96.40;;;;;;4757769;30;20056;-87
2022/10/26 01:08:32;;;;;;;2.42;0.88;;;10.90;96.40;;;;;;4772335;29;20063;-88
2022/10/26 01:11:00;;;;;;;2.35;1.00;;;11.00;96.40;;;;;;4787366;29;20104;-88
2022/10/26 01:13:30;;;;;;;3.75;1.15;;;11.00;96.40;;;;;;4772185;29;20055;-87
2022/10/26 01:16:06;;;;;;;2.83;1.02;;;11.00;96.40;;;;;;4772381;29;20052;-88
2022/10/26 01:18:39;;;;;;;3.63;1.45;;;11.10;96.30;;;;;;4786517;29;20047;-87
2022/10/26 01:21:36;;;;;;;3.03;1.13;;;11.10;96.30;;;;;;4783212;30;20101;-87
2022/10/26 01:24:09;;;;;;;3.45;1.15;;;11.20;96.30;;;;;;4787306;29;20056;-87
2022/10/26 01:26:50;;;;;;;1.80;0.93;;;11.20;96.30;;;;;;4760143;30;20079;-87
2022/10/26 01:29:39;;;;;;;5.10;1.27;;;11.10;96.20;;;;;;4771804;29;20142;-87
2022/10/26 01:32:13;;;;;;;2.35;0.88;;;11.20;96.30;;;;;;4771673;30;20310;-87
2022/10/26 01:35:03;;;;;;;1.77;0.80;;;11.20;96.20;;;;;;4786659;29;20048;-87
2022/10/26 01:37:35;;;;;;;2.15;1.05;;;11.20;96.20;;;;;;4777720;29;20052;-87
2022/10/26 01:40:08;;;;;;;;;;;11.20;96.20;;;;;;4786427;29;20047;-87
2022/10/26 01:42:41;;;;;;;1.45;0.75;;;11.10;96.20;;;;;;4771214;29;20012;-87
2022/10/26 01:45:11;;;;;;;1.90;0.95;;;11.20;96.30;;;;;;4771835;29;20194;-87
2022/10/26 01:47:39;;;;;;;3.10;0.93;;;11.20;96.30;;;;;;4768934;30;20056;-87
2022/10/26 01:50:09;;;;;;;2.17;1.08;;;11.20;96.30;;;;;;4771954;30;20062;-87
2022/10/26 01:52:36;;;;;;;3.80;1.05;;;11.20;96.30;;;;;;4776815;29;20113;-87
2022/10/26 01:55:23;;;;;;;3.58;1.23;;;11.20;96.30;;;;;;4782055;29;20409;-87
2022/10/26 01:57:51;;;;;;;2.88;1.00;;;11.20;96.30;;;;;;4766519;30;20056;-87
2022/10/26 02:00:18;;;;;;;4.15;1.10;;;11.10;96.30;;;;;;4786492;29;20043;-86
2022/10/26 02:03:07;;;;;;;2.08;1.00;;;11.10;96.30;;;;;;4771734;29;20108;-87
2022/10/26 02:06:31;;;;;;;2.92;1.08;;;11.10;96.40;;;;;;4771663;30;20081;-86
2022/10/26 02:09:16;;;;;;;2.25;0.93;;;11.10;96.40;;;;;;4783037;30;20075;-87
2022/10/26 02:11:50;;;;;;;4.13;0.95;;;11.00;96.40;;;;;;4778158;30;20047;-86
2022/10/26 02:14:17;;;;;;;1.67;0.70;;;11.00;96.50;;;;;;4785835;30;20048;-86
2022/10/26 02:16:57;;;;;;;1.80;0.75;;;10.90;96.50;;;;;;4770955;30;20051;-86
2022/10/26 02:19:28;;;;;;;2.58;1.00;;;10.90;96.50;;;;;;4771026;29;20048;-86
2022/10/26 02:22:14;;;;;;;2.55;0.90;;;10.90;96.50;;;;;;4770424;30;20048;-86
2022/10/26 02:24:42;;;;;;;2.92;1.10;;;11.00;96.50;;;;;;4770996;30;20052;-87
2022/10/26 02:27:25;;;;;;;2.53;0.93;;;11.00;96.50;;;;;;4771017;29;20063;-87
2022/10/26 02:29:54;;;;;;;3.05;1.08;;;10.90;96.50;;;;;;4770707;29;20056;-86
2022/10/26 02:32:25;;;;;;;2.80;0.93;;;11.00;96.50;;;;;;4785746;29;20098;-87
2022/10/26 02:34:54;;;;;;;2.63;1.13;;;11.00;96.50;;;;;;4770739;30;20048;-86
2022/10/26 02:37:26;;;;;;;3.45;1.48;;;11.10;96.50;;;;;;4786041;29;20117;-86
2022/10/26 02:39:56;;;;;;;7.00;1.38;;;11.10;96.40;;;;;;4771243;29;20081;-88
2022/10/26 02:42:25;;;;;;;2.55;1.15;;;11.10;96.40;;;;;;4786034;29;20051;-88
2022/10/26 02:44:59;;;;;;;3.45;1.27;;;11.10;96.40;;;;;;4770873;29;20079;-88
2022/10/26 02:47:26;;;;;;;4.55;1.27;;;11.20;96.40;;;;;;4771035;30;20048;-87
2022/10/26 02:49:54;;;;;;;2.33;1.15;;;11.20;96.40;;;;;;4785741;29;20048;-88
2022/10/26 02:52:43;;;;;;;3.85;1.40;;;11.20;96.40;;;;;;4778825;30;20571;-87
2022/10/26 02:55:21;;;;;;;4.35;0.98;;;11.30;96.40;;;;;;4771535;29;20085;-87
2022/10/26 02:57:52;;;;;;;2.58;1.00;;;11.20;96.30;;;;;;4785823;29;20097;-87
2022/10/26 03:00:20;;;;;;;2.13;1.05;;;11.30;96.30;;;;;;4777500;29;20079;-87
2022/10/26 03:02:56;;;;;;;4.15;1.00;;;11.30;96.30;;;;;;4785600;29;20074;-87
2022/10/26 03:05:26;;;;;;;6.72;1.60;;;11.30;96.30;;;;;;4770557;29;20056;-88
2022/10/26 03:07:54;;;;;;;2.92;1.23;;;11.30;96.30;;;;;;4786155;29;20055;-87
2022/10/26 03:10:22;;;;;;;3.80;0.80;;;11.30;96.30;;;;;;4785774;29;20138;-87
2022/10/26 03:12:49;;;;;;;3.17;1.10;;;11.40;96.30;;;;;;4770593;29;20059;-87
2022/10/26 03:15:16;;;;;;;2.65;1.33;;;11.40;96.30;;;;;;4770511;29;20052;-87
2022/10/26 03:17:43;;;;;;;3.80;1.20;;;11.40;96.30;;;;;;4771087;30;20496;-87
2022/10/26 03:20:11;;;;;;;2.38;0.95;;;11.40;96.20;;;;;;4778573;29;20055;-87
2022/10/26 03:22:38;;;;;;;3.22;1.20;;;11.50;96.20;;;;;;4770424;29;20151;-87
2022/10/26 03:25:05;;;;;;;2.85;1.10;;;11.50;96.20;;;;;;4785137;29;20572;-87
2022/10/26 03:27:33;;;;;;;3.13;1.10;;;11.50;96.20;;;;;;4770835;30;20048;-87
2022/10/26 03:30:01;;;;;;;2.42;0.93;;;11.50;96.20;;;;;;4770667;29;20082;-87
2022/10/26 03:32:28;;;;;;;2.45;1.35;;;11.50;96.20;;;;;;4770389;29;20139;-87
2022/10/26 03:34:55;;;;;;;2.97;0.95;;;11.60;96.50;;;;;;4785417;29;20433;-87
2022/10/26 03:37:22;;;;;;;3.15;1.48;;;11.60;96.20;;;;;;4779692;29;20117;-88
2022/10/26 03:39:49;;;;;;;3.40;1.02;;;11.60;96.50;;;;;;4771128;29;20047;-87
2022/10/26 03:42:16;;;;;;;5.10;1.20;;;11.60;96.20;;;;;;4770059;29;20194;-87
2022/10/26 03:44:43;;;;;;;4.75;1.38;;;11.60;96.20;;;;;;4770117;29;20055;-87
2022/10/26 03:47:10;;;;;;;2.67;1.17;;;11.60;96.20;;;;;;4769865;29;20555;-86
2022/10/26 03:49:37;;;;;;;4.13;1.25;;;11.60;96.20;;;;;;4784534;29;20086;-86
2022/10/26 03:52:04;;;;;;;2.42;1.38;;;11.70;96.20;;;;;;4769678;29;20395;-86
2022/10/26 03:54:31;;;;;;;2.33;1.02;;;11.60;96.20;;;;;;4769631;30;20052;-86
2022/10/26 03:56:58;;;;;;;2.42;1.10;;;11.60;96.20;;;;;;4770045;30;20425;-86
2022/10/26 03:59:25;;;;;;;2.65;1.10;;;11.60;96.20;;;;;;4784343;29;20044;-87
2022/10/26 04:01:51;;;;;;;4.03;1.67;;;11.60;96.20;;;;;;4769116;29;20059;-87
2022/10/26 04:04:23;;;;;;;2.53;0.98;;;11.60;96.20;;;;;;4769656;29;20064;-87
2022/10/26 04:06:51;;;;;;;2.42;1.00;;;11.50;96.20;;;;;;4769463;29;20142;-86
2022/10/26 04:09:18;;;;;;;4.22;1.23;;;11.50;96.30;;;;;;4769593;29;20054;-86
2022/10/26 04:11:45;;;;;;;2.22;1.05;;;11.50;96.30;;;;;;4784280;29;20109;-87
2022/10/26 04:14:12;;;;;;;2.97;1.20;;;11.50;96.40;;;;;;4783855;29;20044;-86
2022/10/26 04:16:41;;;;;;;4.13;1.17;;;11.40;96.40;;;;;;4753900;29;20051;-87
2022/10/26 04:19:09;;;;;;;2.63;1.13;;;11.40;96.40;;;;;;4784225;29;20051;-86
2022/10/26 04:21:36;;;;;;;3.35;1.60;;;11.30;96.40;;;;;;4741487;30;20056;-87
2022/10/26 04:24:03;;;;;;;3.15;0.88;;;11.30;96.50;;;;;;4784069;29;20044;-87
2022/10/26 04:26:30;;;;;;;2.65;1.13;;;11.30;96.50;;;;;;4769421;29;20055;-87
2022/10/26 04:28:57;;;;;;;3.35;1.00;;;11.30;96.60;;;;;;4784992;29;20056;-86
2022/10/26 04:31:24;;;;;;;3.50;1.15;;;11.20;96.50;;;;;;4768959;29;20078;-87
2022/10/26 04:33:51;;;;;;;2.90;1.15;;;11.20;96.50;;;;;;4784310;29;20079;-86
2022/10/26 04:36:18;;;;;;;3.72;1.10;;;11.20;96.60;;;;;;4769923;29;20048;-86
2022/10/26 04:38:47;;;;;;;2.38;0.85;;;11.20;96.60;;;;;;4768331;29;20045;-86
2022/10/26 04:41:15;;;;;;;3.50;1.20;;;11.20;96.60;;;;;;4751509;30;20052;-87
2022/10/26 04:43:42;;;;;;;3.58;1.05;;;11.20;96.60;;;;;;4754345;30;20056;-86
2022/10/26 04:46:09;;;;;;;2.85;1.23;;;11.20;96.60;;;;;;4784191;29;20051;-86
2022/10/26 04:48:42;;;;;;;2.20;0.90;;;11.20;96.60;;;;;;4784472;30;20142;-87
2022/10/26 04:51:09;;;;;;;4.65;1.05;;;11.20;96.60;;;;;;4769246;29;20048;-87
2022/10/26 04:53:36;;;;;;;3.78;1.52;;;11.10;96.60;;;;;;4769607;29;20473;-87
2022/10/26 04:56:03;;;;;;;2.10;1.00;;;11.10;96.70;;;;;;4770337;30;20588;-86
2022/10/26 04:58:30;;;;;;;2.20;1.13;;;11.10;96.70;;;;;;4754274;30;20054;-86
2022/10/26 05:00:57;;;;;;;4.07;0.90;;;11.10;96.70;;;;;;4769292;30;20066;-86
2022/10/26 05:03:24;;;;;;;4.97;1.25;;;11.10;96.70;;;;;;4777572;29;20058;-86
2022/10/26 05:05:51;;;;;;;3.20;0.95;;;11.10;96.70;;;;;;4769396;29;20055;-86
2022/10/26 05:08:18;;;;;;;2.95;1.13;;;11.10;96.70;;;;;;4772516;29;20056;-87
2022/10/26 05:10:49;;;;;;;2.38;1.00;;;11.10;96.70;;;;;;4761014;30;20469;-86
2022/10/26 05:13:16;;;;;;;4.28;1.23;;;11.20;96.70;;;;;;4785775;29;20104;-86
2022/10/26 05:15:43;;;;;;;4.30;1.15;;;11.20;96.70;;;;;;4787314;29;20138;-85
2022/10/26 05:18:10;;;;;;;4.13;1.20;;;11.20;96.70;;;;;;4787323;29;20497;-87
2022/10/26 05:20:38;;;;;;;3.08;1.00;;;11.20;96.60;;;;;;4772153;29;20051;-87
2022/10/26 05:23:09;;;;;;;3.70;1.05;;;11.30;96.60;;;;;;4772074;29;20150;-87
2022/10/26 05:25:37;;;;;;;2.35;0.88;;;11.30;96.60;;;;;;4772437;29;20518;-87
2022/10/26 05:28:08;;;;;;;4.18;1.25;;;11.30;96.60;;;;;;4772214;30;20143;-86
2022/10/26 05:30:35;;;;;;;2.85;1.15;;;11.30;96.50;;;;;;4771798;29;20055;-86
2022/10/26 05:33:02;;;;;;;3.00;1.15;;;11.40;96.50;;;;;;4771249;29;20079;-87
2022/10/26 05:35:31;;;;;;;2.75;1.27;;;11.40;96.50;;;;;;4784771;29;20074;-86
2022/10/26 05:37:58;;;;;;;4.65;0.90;;;11.40;96.80;;;;;;4771432;29;20139;-87
2022/10/26 05:40:25;;;;;;;2.35;0.88;;;11.50;96.50;;;;;;4771455;29;20052;-86
2022/10/26 05:42:59;;;;;;;3.28;1.27;;;11.50;96.50;;;;;;4771574;29;21521;-87
2022/10/26 05:45:26;;;;;;;2.40;1.17;;;11.50;96.50;;;;;;4771545;29;20348;-87
2022/10/26 05:47:53;;;;;;;3.00;1.08;;;11.50;96.40;;;;;;4779992;29;20489;-86
2022/10/26 05:50:27;;;;;;;2.65;0.95;;;11.50;96.40;;;;;;4771173;30;20105;-87
2022/10/26 05:52:54;;;;;;;1.73;0.75;;;11.60;96.40;;;;;;4771231;30;20052;-87
2022/10/26 05:55:22;;;;;;;3.47;1.30;;;11.60;96.40;;;;;;4763923;30;20047;-86
2022/10/26 05:57:49;;;;;;;4.15;1.50;;;11.60;96.40;;;;;;4773221;30;20048;-87
2022/10/26 06:00:21;;;;;;;3.50;1.48;;;11.60;96.40;;;;;;4774654;29;20050;-86
2022/10/26 06:03:06;;;;;;;2.67;0.85;;;11.70;96.40;;;;;;4749073;30;20039;-86
2022/10/26 06:05:57;;;;;;;3.00;1.10;;;11.70;96.40;;;;;;4773833;30;20108;-86
2022/10/26 06:08:33;;;;;;;1.92;0.70;;;11.70;96.30;;;;;;4772969;29;20139;-86
2022/10/26 06:11:01;;;;;;;2.00;0.93;;;11.70;96.40;;;;;;4771024;29;20147;-85
2022/10/26 06:13:29;;;;;;;3.25;1.23;;;11.70;96.40;;;;;;4785747;29;20052;-86
2022/10/26 06:16:27;;;;;;;3.08;0.85;;;11.70;96.40;;;;;;4771460;29;20126;-87
2022/10/26 06:19:35;;;;;;;3.17;1.13;;;11.70;96.40;;;;;;4772765;30;20583;-86
2022/10/26 06:22:16;;;;;;;2.03;0.88;;;11.70;96.40;;;;;;4755017;30;20079;-86
2022/10/26 06:25:05;;;;;;;4.25;1.20;;;11.60;96.40;;;;;;4770501;29;20059;-86
2022/10/26 06:27:52;;;;;;;2.08;0.90;;;11.60;96.50;;;;;;4777378;29;20909;-86
2022/10/26 06:30:22;;;;;;;4.38;0.80;;;11.50;96.50;;;;;;4770537;29;20504;-86
2022/10/26 06:32:52;;;;;;;1.77;0.70;;;11.50;96.50;;;;;;4785282;29;20060;-85
2022/10/26 06:35:43;;;;;;;2.40;0.75;;;11.50;96.60;;;;;;4770397;30;20048;-86
2022/10/26 06:38:15;;;;;;;3.53;1.13;;;11.50;96.60;;;;;;4770053;29;20143;-86
2022/10/26 06:40:45;;;;;;;3.95;0.63;;;11.50;96.60;;;;;;4769864;29;20052;-85
2022/10/26 06:43:26;;;;;;;3.97;0.82;;;11.50;96.60;;;;;;4783060;29;20052;-86
2022/10/26 06:45:59;;;;;;;2.75;0.80;;;11.50;96.60;;;;;;4773421;29;20058;-86
2022/10/26 06:48:38;;;;;;;2.22;0.85;;;11.50;96.60;;;;;;4785072;29;21001;-85
2022/10/26 06:51:13;;;;;;;2.60;0.90;;;11.50;96.60;;;;;;4757020;30;20056;-86
2022/10/26 06:54:22;;;;;;;1.73;0.70;;;11.50;96.60;;;;;;4785619;29;20144;-90
2022/10/26 06:56:51;;;;;;;2.33;0.67;;;11.50;96.60;;;;;;4749374;30;20053;-91
2022/10/26 06:59:36;;;;;;;3.38;0.88;;;11.40;96.60;;;;;;4736025;30;20151;-93
2022/10/26 07:02:17;;;;;;;1.40;0.70;;;11.50;96.60;;;;;;4766175;29;20052;-87
2022/10/26 07:04:45;;;;;;;1.40;0.70;;;11.40;96.70;;;;;;4770000;29;20136;-86
2022/10/26 07:07:18;;;;;;;1.80;0.80;;;11.50;96.70;;;;;;4784695;29;20087;-83
2022/10/26 07:09:45;;;;;;;1.98;0.90;;;11.50;96.60;;;;;;4765356;29;20060;-84
2022/10/26 07:12:12;;;;;;;2.70;0.60;;;11.50;96.60;;;;;;4784167;29;20494;-84
2022/10/26 07:14:40;;;;;;;1.38;0.60;;;11.50;96.60;;;;;;4768628;29;20055;-85
2022/10/26 07:17:49;;;;;;;2.55;0.82;;;11.50;96.60;;;;;;4772861;29;20071;-87
2022/10/26 07:20:32;;;;;;;2.88;0.82;;;11.50;96.60;;;;;;4775949;29;20040;-87
2022/10/26 07:23:10;;;;;;;1.13;0.60;;;11.60;96.60;;;;;;4769688;29;20084;-87
2022/10/26 07:25:41;;;;;;;3.10;0.68;;;11.70;96.60;;;;;;4784685;29;20572;-88
2022/10/26 07:28:10;;;;;;;2.00;0.65;;;11.80;96.50;;;;;;4784742;29;20524;-87
2022/10/26 07:30:38;;;;;;;1.60;0.80;;;11.80;96.50;;;;;;4769658;30;20079;-88
2022/10/26 07:33:11;;;;;;;1.95;0.85;;;11.90;96.40;;;;;;4769805;29;20101;-89
2022/10/26 07:35:38;;;;;;;;;;;12.00;96.30;;;;;;4770252;29;20051;-88
2022/10/26 07:38:06;;;;;;;1.40;0.63;;;12.00;96.30;;;;;;4783958;29;19933;-88
2022/10/26 07:40:35;;;;;;;2.47;0.52;;;12.00;96.30;;;;;;4770035;29;20047;-88
2022/10/26 07:43:02;;;;;;;2.92;1.02;;;12.00;96.30;;;;;;4784752;29;20079;-88
2022/10/26 07:45:29;;;;;;;1.40;0.70;;;12.10;96.30;;;;;;4785022;29;20069;-88
2022/10/26 07:47:58;;;;;;;2.67;0.82;;;12.10;96.30;;;;;;4770086;30;20060;-89
2022/10/26 07:50:25;;;;;;;2.55;1.30;;;12.10;96.30;;;;;;4769033;29;20052;-85
2022/10/26 07:52:53;;;;;;;2.60;0.98;;;12.10;96.30;;;;;;4768956;29;20087;-85
2022/10/26 07:55:20;;;;;;;3.42;0.93;;;12.20;96.30;;;;;;4783830;29;20567;-84
2022/10/26 07:57:47;;;;;;;2.25;1.10;;;12.20;96.30;;;;;;4783981;29;20063;-84
2022/10/26 08:00:20;;;;;;;1.73;0.82;;;12.30;96.30;;;;;;4784232;29;20059;-85
2022/10/26 08:02:48;;;;;;;2.00;0.90;;;12.30;96.30;;;;;;4783742;29;20109;-85
2022/10/26 08:05:15;;;;;;;1.80;0.85;;;12.30;96.30;;;;;;4764763;29;20159;-84
2022/10/26 08:07:43;;;;;;;1.95;1.13;;;12.30;96.20;;;;;;4783445;29;20147;-84
2022/10/26 08:10:12;;;;;;;2.33;0.90;;;12.40;96.30;;;;;;4768839;29;20056;-85
2022/10/26 08:12:39;;;;;;;2.55;0.82;;;12.40;96.20;;;;;;4768523;29;20079;-84
2022/10/26 08:15:08;;;;;;;1.95;0.90;;;12.40;96.20;;;;;;4769294;29;20071;-88
2022/10/26 08:17:35;;;;;;;2.47;0.93;;;12.50;96.20;;;;;;4783668;29;20047;-87
2022/10/26 08:20:02;;;;;;;5.18;1.00;;;12.50;96.20;;;;;;4784569;29;20058;-90
2022/10/26 08:22:32;;;;;;;4.20;1.23;;;12.60;96.20;;;;;;4769975;29;20082;-89
2022/10/26 08:25:00;;;;;;;2.30;0.90;;;12.60;96.10;;;;;;4769667;29;20083;-90
2022/10/26 08:27:27;;;;;;;2.78;0.73;;;12.70;96.20;;;;;;4786626;29;20075;-89
2022/10/26 08:29:54;;;;;;;3.08;1.05;;;12.70;96.10;;;;;;4770919;29;20062;-90
2022/10/26 08:32:24;;;;;;;4.32;1.10;;;12.80;96.10;;;;;;4769999;29;20056;-89
2022/10/26 08:34:53;;;;;;;2.08;1.00;;;12.90;96.10;;;;;;4770076;30;20146;-86
2022/10/26 08:37:21;;;;;;;4.47;1.35;;;12.90;96.00;;;;;;4783519;29;20044;-86
2022/10/26 08:39:51;;;;;;;3.20;1.20;;;13.10;96.00;;;;;;4767918;30;20103;-85
2022/10/26 08:42:54;;;;;;;4.30;1.27;;;13.10;96.00;;;;;;4768201;29;20082;-85
2022/10/26 08:45:37;;;;;;;3.55;1.15;;;13.10;95.90;;;;;;4768099;30;20056;-85
2022/10/26 08:48:23;;;;;;;2.67;1.50;;;13.20;95.90;;;;;;4769646;29;20062;-86
2022/10/26 08:50:52;;;;;;;3.35;0.77;;;13.30;95.90;;;;;;4787185;30;20488;-85
2022/10/26 08:53:40;;;;;;;3.08;0.85;;;13.30;95.90;;;;;;4772145;29;20048;-86
2022/10/26 08:56:19;;;;;;;3.22;0.80;;;13.40;95.80;;;;;;4786756;29;20474;-85
2022/10/26 08:58:54;;;;;;;2.40;0.85;;;13.50;95.80;;;;;;4771886;29;20422;-85
2022/10/26 09:01:21;;;;;;;3.15;1.15;;;13.60;95.80;;;;;;4768085;30;20040;-85
2022/10/26 09:03:48;;;;;;;2.00;0.60;;;13.60;95.70;;;;;;4742844;30;20070;-85
2022/10/26 09:06:26;;;;;;;1.98;0.80;;;13.70;95.70;;;;;;4756344;30;20051;-85
2022/10/26 09:09:12;;;;;;;2.75;0.80;;;13.80;95.80;;;;;;4771302;29;20052;-85
2022/10/26 09:12:05;;;;;;;1.38;0.52;;;13.80;95.70;;;;;;4771026;29;20109;-86
2022/10/26 09:14:37;;;;;;;2.65;0.75;;;13.90;95.70;;;;;;4771424;30;20123;-85
2022/10/26 09:17:13;;;;;;;1.50;0.60;;;14.00;95.70;;;;;;4771527;30;20051;-86
2022/10/26 09:19:48;;;;;;;1.83;1.00;;;14.10;95.60;;;;;;4786328;29;20446;-85
2022/10/26 09:22:25;;;;;;;3.42;0.57;;;14.30;95.50;;;;;;4771620;29;20052;-86
2022/10/26 09:24:55;;;;;;;1.92;0.70;;;14.40;95.40;;;;;;4785899;29;20048;-84
2022/10/26 09:27:42;;;;;;;2.75;1.08;;;14.50;95.40;;;;;;4786109;29;20077;-85
2022/10/26 09:30:14;;;;;;;3.60;1.00;;;14.60;95.30;;;;;;4770891;29;20044;-86
2022/10/26 09:32:46;;;;;;;3.03;1.02;;;14.70;95.20;;;;;;4789723;29;20057;-85
2022/10/26 09:35:24;;;;;;;4.00;1.02;;;14.80;95.20;;;;;;4756831;30;20425;-85
2022/10/26 09:38:16;;;;;;;2.50;1.20;;;14.90;95.20;;;;;;4771502;29;20063;-84
2022/10/26 09:40:49;;;;;;;2.83;1.10;;;14.90;95.20;;;;;;4753861;30;20109;-88
2022/10/26 09:43:24;;;;;;;2.72;1.30;;;15.00;95.10;;;;;;4783562;30;20502;-88
2022/10/26 09:45:51;;;;;;;1.98;1.00;;;15.10;95.10;;;;;;4786627;29;20488;-88
2022/10/26 09:48:26;;;;;;;4.30;1.20;;;15.10;95.20;;;;;;4771635;29;20043;-88
2022/10/26 09:50:53;;;;;;;2.72;1.20;;;15.10;95.20;;;;;;4772259;30;20056;-88
2022/10/26 09:53:21;;;;;;;2.60;1.30;;;15.20;95.10;;;;;;4786950;29;20048;-88
2022/10/26 09:56:06;;;;;;;3.40;1.00;;;15.30;95.10;;;;;;4757729;30;20101;-88
2022/10/26 09:58:44;;;;;;;2.35;0.90;;;15.40;95.00;;;;;;4786643;29;20071;-89
2022/10/26 10:01:26;;;;;;;1.95;0.77;;;15.50;95.00;;;;;;4771232;29;20138;-89
2022/10/26 10:04:20;;;;;;;3.25;1.00;;;15.60;94.90;;;;;;4774904;29;20052;-89
2022/10/26 10:06:50;;;;;;;3.90;1.30;;;15.70;94.80;;;;;;4771767;30;20074;-88
2022/10/26 10:09:19;;;;;;;2.15;0.93;;;15.80;94.80;;;;;;4771622;29;20063;-88
2022/10/26 10:11:56;;;;;;;4.07;1.30;;;15.90;94.70;;;;;;4786321;29;20059;-89
2022/10/26 10:14:39;;;;;;;3.20;1.42;;;16.00;94.90;;;;;;4786385;29;20138;-89
2022/10/26 10:17:14;;;;;;;3.47;1.80;;;16.00;94.60;;;;;;4771527;29;20055;-89
2022/10/26 10:19:41;;;;;;;2.88;1.17;;;16.10;94.60;;;;;;4770939;29;20142;-89
2022/10/26 10:22:22;;;;;;;2.42;1.13;;;16.10;94.60;;;;;;4771386;29;20059;-89
2022/10/26 10:24:58;;;;;;;5.55;2.15;;;16.20;94.50;;;;;;4770629;29;20051;-87
2022/10/26 10:27:27;;;;;;;4.00;1.48;;;16.30;94.40;;;;;;4771396;29;20087;-87
2022/10/26 10:29:56;;;;;;;3.42;1.20;;;16.30;94.40;;;;;;4786146;29;20050;-87
2022/10/26 10:32:31;;;;;;;3.15;1.85;;;16.40;94.40;;;;;;4771368;29;20138;-87
2022/10/26 10:35:23;;;;;;;2.33;1.08;;;16.40;94.30;;;;;;4771241;29;20055;-88
2022/10/26 10:37:51;;;;;;;4.35;1.30;;;16.40;94.30;;;;;;4770385;30;20047;-87
2022/10/26 10:40:26;;;;;;;4.93;1.70;;;16.40;94.40;;;;;;4757899;29;20113;-88
2022/10/26 10:43:14;;;;;;;3.33;1.35;;;16.40;94.40;;;;;;4770957;29;20467;-88
2022/10/26 10:45:50;;;;;;;4.13;1.45;;;16.50;94.30;;;;;;4770773;29;20576;-87
2022/10/26 10:48:24;;;;;;;4.15;1.42;;;16.50;94.30;;;;;;4770411;30;20055;-87
2022/10/26 10:51:02;;;;;;;4.43;1.70;;;16.60;94.30;;;;;;4770799;29;20052;-88
2022/10/26 10:53:29;;;;;;;4.00;1.40;;;16.70;94.20;;;;;;4770673;29;20138;-87
2022/10/26 10:56:04;;;;;;;3.88;1.23;;;16.70;94.20;;;;;;4771254;29;20048;-87
2022/10/26 10:58:51;;;;;;;4.32;1.60;;;16.70;94.20;;;;;;4771091;29;20128;-87
2022/10/26 11:01:30;;;;;;;5.82;1.42;;;16.80;94.20;;;;;;4772301;29;20052;-91
2022/10/26 11:04:04;;;;;;;2.90;1.30;;;16.80;94.20;;;;;;4771804;29;20151;-92
2022/10/26 11:06:39;;;;;;;3.83;1.45;;;16.80;94.20;;;;;;4771989;29;20055;-92
2022/10/26 11:09:23;;;;;;;2.92;1.20;;;16.80;94.10;;;;;;4783818;29;20059;-92
2022/10/26 11:11:57;;;;;;;3.53;1.23;;;16.90;94.10;;;;;;4770551;30;20063;-92
2022/10/26 11:14:37;;;;;;;2.72;1.02;;;16.90;94.20;;;;;;4771625;30;20083;-92
2022/10/26 11:17:20;;;;;;;4.40;1.73;;;17.00;94.10;;;;;;4770929;30;20107;-92
2022/10/26 11:19:59;;;;;;;4.35;1.70;;;17.10;93.90;;;;;;4785954;29;20076;-91
2022/10/26 11:22:35;;;;;;;5.20;2.45;;;17.30;93.60;;;;;;4770876;30;20051;-90
2022/10/26 11:25:10;;;;;;;7.30;2.85;;;17.40;93.20;;;;;;4771185;30;20105;-91
2022/10/26 11:27:59;;;;;;;7.57;2.70;;;17.60;92.80;;;;;;4771369;30;20052;-91
2022/10/26 11:30:29;;;;;;;6.15;2.25;;;17.70;92.60;;;;;;4767414;30;20081;-90
2022/10/26 11:33:05;;;;;;;3.40;1.45;;;17.70;92.30;;;;;;4771630;29;20055;-90
2022/10/26 11:35:55;;;;;;;3.88;1.85;;;17.80;92.50;;;;;;4764871;30;20139;-92
2022/10/26 11:38:47;;;;;;;2.80;1.27;;;17.80;92.70;;;;;;4770769;30;20113;-92
2022/10/26 11:41:59;;;;;;;6.90;1.42;;;17.70;92.80;;;;;;4771052;30;20056;-92
2022/10/26 11:44:57;;;;;;;;;;;;;;;;;;;;;
2022/10/26 11:47:52;;;;;;;2.30;1.00;;;17.90;93.00;;;;;;4783422;29;20051;-85
2022/10/26 11:50:29;;;;;;;2.72;1.10;;;18.00;93.00;;;;;;4769163;29;20555;-87
2022/10/26 11:53:23;;;;;;;3.45;1.40;;;18.10;92.90;;;;;;4771403;29;20059;-90
2022/10/26 11:55:54;;;;;;;1.80;0.90;;;18.20;92.70;;;;;;4767911;29;20126;-90
2022/10/26 11:58:27;;;;;;;2.65;1.55;;;18.20;92.70;;;;;;4770222;29;20075;-90
2022/10/26 12:01:04;;;;;;;4.50;1.80;;;18.30;92.50;;;;;;4755364;30;20054;-90
2022/10/26 12:03:35;;;;;;;3.70;1.80;;;18.40;92.20;;;;;;4770845;29;20136;-90
2022/10/26 12:06:03;;;;;;;3.40;1.85;;;18.40;91.90;;;;;;4784649;29;20502;-90
2022/10/26 12:08:41;;;;;;;5.25;1.90;;;18.50;91.90;;;;;;4784908;29;20059;-88
2022/10/26 12:11:39;;;;;;;4.70;2.28;;;18.50;91.60;;;;;;4769964;30;20132;-90
2022/10/26 12:14:40;;;;;;;2.40;1.25;;;18.60;91.60;;;;;;4775200;29;20421;-90
2022/10/26 12:17:16;;;;;;;4.57;1.30;;;18.70;91.70;;;;;;4761922;30;20421;-90
2022/10/26 12:20:23;;;;;;;2.58;1.35;;;18.80;91.80;;;;;;4769890;29;20055;-90
2022/10/26 12:22:50;;;;;;;3.40;1.63;;;18.80;91.80;;;;;;4769287;29;20078;-90
2022/10/26 12:25:20;;;;;;;4.13;1.80;;;18.60;91.80;;;;;;4770309;30;20103;-90
2022/10/26 12:27:52;;;;;;;;;;;18.50;91.80;;;;;;4785336;29;20056;-90
2022/10/26 12:30:25;;;;;;;6.53;1.70;;;18.40;92.00;;;;;;4770336;29;19930;-90
2022/10/26 12:32:54;;;;;;;3.58;1.73;;;18.40;92.00;;;;;;4770011;29;20085;-91
2022/10/26 12:35:28;;;;;;;2.30;1.15;;;18.30;92.10;;;;;;4769997;29;20417;-90
2022/10/26 12:37:56;;;;;;;4.20;1.77;;;18.30;92.20;;;;;;4769770;30;20550;-89
2022/10/26 12:40:31;;;;;;;3.55;1.35;;;18.30;92.30;;;;;;4783646;29;20047;-83
2022/10/26 12:43:14;;;;;;;5.32;1.50;;;18.30;92.30;;;;;;4768182;30;20101;-83
2022/10/26 12:45:42;;;;;;;2.78;1.15;;;18.40;92.30;;;;;;4767892;30;20058;-85
2022/10/26 12:48:37;;;;;;;2.20;0.98;;;18.40;92.40;;;;;;4767797;29;20089;-86
2022/10/26 12:51:18;;;;;;;2.70;1.15;;;18.40;92.30;;;;;;4767822;30;20540;-85
2022/10/26 12:54:26;;;;;;;2.95;1.13;;;18.40;92.40;;;;;;4768761;29;20075;-85
2022/10/26 12:57:21;;;;;;;2.88;1.23;;;18.40;92.40;;;;;;4783395;29;20052;-85
2022/10/26 13:00:00;;;;;;;2.33;1.00;;;18.50;92.40;;;;;;4768578;30;20059;-86
2022/10/26 13:02:42;;;;;;;2.30;1.20;;;18.50;92.40;;;;;;4783043;29;20135;-84
2022/10/26 13:05:28;;;;;;;2.92;1.17;;;18.40;92.40;;;;;;4759586;30;20074;-85
2022/10/26 13:08:10;;;;;;;3.95;1.20;;;18.50;92.30;;;;;;4783092;29;20055;-83
2022/10/26 13:10:46;;;;;;;2.17;1.15;;;18.50;92.30;;;;;;4768147;29;20055;-86
2022/10/26 13:13:22;;;;;;;2.03;0.75;;;18.60;92.40;;;;;;4756895;30;20056;-89
2022/10/26 13:15:57;;;;;;;3.05;1.05;;;18.60;92.40;;;;;;4768187;29;20048;-84
2022/10/26 13:18:24;;;;;;;1.55;0.80;;;18.50;92.40;;;;;;4782910;30;20036;-82
2022/10/26 13:21:10;;;;;;;3.17;1.48;;;18.50;92.50;;;;;;4768178;29;20516;-81
2022/10/26 13:23:44;;;;;;;7.38;1.75;;;18.50;92.30;;;;;;4766024;30;20521;-81